Terminal Aerodrome Forecast
Issued by NWS

Home | Current Version | Previous Version | Text Only | Print | Product List | Glossary On
Versions: 1 2 3 4 5 6 7 8 9 10 11 12 13
292
FTUS44 KCRP 271720
TAFALI
TAF
KALI 271720Z 2718/2818 07014KT P6SM VCSH SCT025 BKN040
      TEMPO 2719/2723 TSRA SCT025 BKN030CB
     FM280000 VRB04KT P6SM SCT025 BKN050
      TEMPO 2809/2813 BKN015
     FM281500 14006KT P6SM VCSH SCT025 BKN040=

USA.gov is the U.S. government's official web portal to all federal, state and local government web resources and services.